createdAt,value
2018-03-20T00:00:39.303Z,0.00
2018-03-20T00:01:39.168Z,0.00
2018-03-20T00:02:39.032Z,0.00
2018-03-20T00:03:38.893Z,0.00
2018-03-20T00:04:38.757Z,0.00
2018-03-20T00:05:38.621Z,0.00
2018-03-20T00:06:38.489Z,0.00
2018-03-20T00:07:38.350Z,0.00
2018-03-20T00:08:38.222Z,0.00
2018-03-20T00:09:38.082Z,0.00
2018-03-20T00:10:37.943Z,0.00
2018-03-20T00:11:37.806Z,0.00
2018-03-20T00:12:37.674Z,0.00
2018-03-20T00:13:37.542Z,0.00
2018-03-20T00:14:37.399Z,0.00
2018-03-20T00:15:37.281Z,0.00
2018-03-20T00:16:37.130Z,0.00
2018-03-20T00:17:36.995Z,0.00
2018-03-20T00:18:36.859Z,0.00
2018-03-20T00:19:36.724Z,0.00
2018-03-20T00:20:36.585Z,0.00
2018-03-20T00:21:36.452Z,0.00
2018-03-20T00:22:36.317Z,0.00
2018-03-20T00:23:36.181Z,0.00
2018-03-20T00:24:36.053Z,0.00
2018-03-20T00:25:35.911Z,0.00
2018-03-20T00:26:35.772Z,0.00
2018-03-20T00:27:35.637Z,0.00
2018-03-20T00:28:35.502Z,0.00
2018-03-20T00:29:35.365Z,0.00
2018-03-20T00:30:35.231Z,0.00
2018-03-20T00:31:35.097Z,0.00
2018-03-20T00:32:34.962Z,0.00
2018-03-20T00:33:34.823Z,0.00
2018-03-20T00:34:34.689Z,0.00
2018-03-20T00:35:34.554Z,0.00
2018-03-20T00:36:34.416Z,0.00
2018-03-20T00:37:34.282Z,0.00
2018-03-20T00:38:34.147Z,0.00
2018-03-20T00:39:34.010Z,0.00
2018-03-20T00:40:33.877Z,0.00
2018-03-20T00:41:33.743Z,0.00
2018-03-20T00:42:33.605Z,0.00
2018-03-20T00:43:33.467Z,0.00
2018-03-20T00:44:33.329Z,0.00
2018-03-20T00:45:33.197Z,0.00
2018-03-20T00:46:33.061Z,0.00
2018-03-20T00:47:32.924Z,0.00
2018-03-20T00:48:32.787Z,0.00
2018-03-20T00:49:32.654Z,0.00
2018-03-20T00:50:32.521Z,0.00
2018-03-20T00:51:32.381Z,0.00
2018-03-20T00:52:32.244Z,0.00
2018-03-20T00:53:32.110Z,0.00
2018-03-20T00:54:31.975Z,0.00
2018-03-20T00:55:31.838Z,0.00
2018-03-20T00:56:31.701Z,0.00
2018-03-20T00:57:31.567Z,0.00
2018-03-20T00:58:31.430Z,0.00
2018-03-20T00:59:31.297Z,0.00
2018-03-20T01:00:31.158Z,0.00
2018-03-20T01:01:31.022Z,0.00
2018-03-20T01:02:30.887Z,0.00
2018-03-20T01:03:30.749Z,0.00
2018-03-20T01:04:30.616Z,0.00
2018-03-20T01:05:30.479Z,0.00
2018-03-20T01:06:30.342Z,0.00
2018-03-20T01:07:30.208Z,0.00
2018-03-20T01:08:30.072Z,0.00
2018-03-20T01:09:29.935Z,0.00
2018-03-20T01:10:29.805Z,0.00
2018-03-20T01:11:29.667Z,0.00
2018-03-20T01:12:29.526Z,0.00
2018-03-20T01:13:29.449Z,0.00
2018-03-20T01:14:31.238Z,0.00
2018-03-20T01:15:29.122Z,0.00
2018-03-20T01:16:28.984Z,0.00
2018-03-20T01:17:28.879Z,0.00
2018-03-20T01:18:28.711Z,0.00
2018-03-20T01:19:28.574Z,0.00
2018-03-20T01:20:28.451Z,0.00
2018-03-20T01:21:28.307Z,0.00
2018-03-20T01:22:28.168Z,0.00
2018-03-20T01:23:28.033Z,0.00
2018-03-20T01:24:27.896Z,0.00
2018-03-20T01:25:27.760Z,0.00
2018-03-20T01:26:27.622Z,0.00
2018-03-20T01:27:27.487Z,0.00
2018-03-20T01:28:27.352Z,0.00
2018-03-20T01:29:27.215Z,0.00
2018-03-20T01:30:27.081Z,0.00
2018-03-20T01:31:26.943Z,0.00
2018-03-20T01:32:26.807Z,0.00
2018-03-20T01:33:26.676Z,0.00
2018-03-20T01:34:26.541Z,0.00
2018-03-20T01:35:26.401Z,0.00
2018-03-20T01:36:26.265Z,0.00
2018-03-20T01:37:26.132Z,0.00
2018-03-20T01:38:25.994Z,0.00
2018-03-20T01:39:25.856Z,0.00
2018-03-20T01:40:25.730Z,0.00
2018-03-20T01:41:25.589Z,0.00
2018-03-20T01:42:25.457Z,0.00
2018-03-20T01:43:25.313Z,0.00
2018-03-20T01:44:25.231Z,0.00
2018-03-20T01:45:25.041Z,0.00
2018-03-20T01:46:24.904Z,0.00
2018-03-20T01:47:24.769Z,0.00
2018-03-20T01:48:24.631Z,0.00
2018-03-20T01:49:24.496Z,0.00
2018-03-20T01:50:24.360Z,0.00
2018-03-20T01:51:24.221Z,0.00
2018-03-20T01:52:24.087Z,0.00
2018-03-20T01:53:23.951Z,0.00
2018-03-20T01:54:23.819Z,0.00
2018-03-20T01:55:23.682Z,0.00
2018-03-20T01:56:23.547Z,0.00
2018-03-20T01:57:23.411Z,0.00
2018-03-20T01:58:23.271Z,0.00
2018-03-20T01:59:23.137Z,0.00
2018-03-20T02:00:23.003Z,0.00
2018-03-20T02:01:22.869Z,0.00
2018-03-20T02:02:22.734Z,0.00
2018-03-20T02:03:22.595Z,0.00
2018-03-20T02:04:22.459Z,0.00
2018-03-20T02:05:22.322Z,0.00
2018-03-20T02:06:22.185Z,0.00
2018-03-20T02:07:22.052Z,0.00
2018-03-20T02:08:21.917Z,0.00
2018-03-20T02:09:21.788Z,0.00
2018-03-20T02:10:21.640Z,0.00
2018-03-20T02:11:21.505Z,0.00
2018-03-20T02:12:21.370Z,0.00
2018-03-20T02:13:21.237Z,0.00
2018-03-20T02:14:21.098Z,0.00
2018-03-20T02:15:20.960Z,0.00
2018-03-20T02:16:20.825Z,0.00
2018-03-20T02:17:20.691Z,0.00
2018-03-20T02:18:20.554Z,0.00
2018-03-20T02:19:20.417Z,0.00
2018-03-20T02:20:20.280Z,0.00
2018-03-20T02:21:20.151Z,0.00
2018-03-20T02:22:20.010Z,0.00
2018-03-20T02:23:19.873Z,0.00
2018-03-20T02:24:19.744Z,0.00
2018-03-20T02:25:19.642Z,0.00
2018-03-20T02:26:19.466Z,0.00
2018-03-20T02:27:19.338Z,0.00
2018-03-20T02:28:19.194Z,0.00
2018-03-20T02:29:19.056Z,0.00
2018-03-20T02:30:18.922Z,0.00
2018-03-20T02:31:18.787Z,0.00
2018-03-20T02:32:18.651Z,0.00
2018-03-20T02:33:18.517Z,0.00
2018-03-20T02:34:18.378Z,0.00
2018-03-20T02:35:18.241Z,0.00
2018-03-20T02:36:18.109Z,0.00
2018-03-20T02:37:17.970Z,0.00
2018-03-20T02:38:17.836Z,0.00
2018-03-20T02:39:17.698Z,0.00
2018-03-20T02:40:17.562Z,0.00
2018-03-20T02:41:17.424Z,0.00
2018-03-20T02:42:17.291Z,0.00
2018-03-20T02:43:17.152Z,0.00
2018-03-20T02:44:17.016Z,0.00
2018-03-20T02:45:16.879Z,0.00
2018-03-20T02:46:16.746Z,0.00
2018-03-20T02:47:16.608Z,0.00
2018-03-20T02:48:16.472Z,0.00
2018-03-20T02:49:16.336Z,0.00
2018-03-20T02:50:16.199Z,0.00
2018-03-20T02:51:16.060Z,0.00
2018-03-20T02:52:15.926Z,0.00
2018-03-20T02:53:15.791Z,0.00
2018-03-20T02:54:15.662Z,0.00
2018-03-20T02:55:15.517Z,0.00
2018-03-20T02:56:15.380Z,0.00
2018-03-20T02:57:15.244Z,0.00
2018-03-20T02:58:15.109Z,0.00
2018-03-20T02:59:14.969Z,0.00
2018-03-20T03:00:14.835Z,0.00
2018-03-20T03:01:14.699Z,0.00
2018-03-20T03:02:14.564Z,0.00
2018-03-20T03:03:14.441Z,0.00
2018-03-20T03:04:14.290Z,0.00
2018-03-20T03:05:14.157Z,0.00
2018-03-20T03:06:14.018Z,0.00
2018-03-20T03:07:13.892Z,0.00
2018-03-20T03:08:13.746Z,0.00
2018-03-20T03:09:13.615Z,0.00
2018-03-20T03:10:13.478Z,0.00
2018-03-20T03:11:13.331Z,0.00
2018-03-20T03:12:13.197Z,0.00
2018-03-20T03:13:13.060Z,0.00
2018-03-20T03:14:12.929Z,0.00
2018-03-20T03:15:12.786Z,0.00
2018-03-20T03:16:12.653Z,0.00
2018-03-20T03:17:12.515Z,0.00
2018-03-20T03:18:12.379Z,0.00
2018-03-20T03:19:12.241Z,0.00
2018-03-20T03:20:12.106Z,0.00
2018-03-20T03:21:11.969Z,0.00
2018-03-20T03:22:11.836Z,0.00
2018-03-20T03:23:11.698Z,0.00
2018-03-20T03:24:11.560Z,0.00
2018-03-20T03:25:11.425Z,0.00
2018-03-20T03:26:11.289Z,0.00
2018-03-20T03:27:11.152Z,0.00
2018-03-20T03:28:11.015Z,0.00
2018-03-20T03:29:10.883Z,0.00
2018-03-20T03:30:10.747Z,0.00
2018-03-20T03:31:10.605Z,0.00
2018-03-20T03:32:10.477Z,0.00
2018-03-20T03:33:10.335Z,0.00
2018-03-20T03:34:10.197Z,0.00
2018-03-20T03:35:10.064Z,0.00
2018-03-20T03:36:09.924Z,0.00
2018-03-20T03:37:09.789Z,0.00
2018-03-20T03:38:09.653Z,0.00
2018-03-20T03:39:09.517Z,0.00
2018-03-20T03:40:09.378Z,0.00
2018-03-20T03:41:09.242Z,0.00
2018-03-20T03:42:09.109Z,0.00
2018-03-20T03:43:08.969Z,0.00
2018-03-20T03:44:08.834Z,0.00
2018-03-20T03:45:08.700Z,0.00
2018-03-20T03:46:08.563Z,0.00
2018-03-20T03:47:08.426Z,0.00
2018-03-20T03:48:08.292Z,0.00
2018-03-20T03:49:08.155Z,0.00
2018-03-20T03:50:08.016Z,0.00
2018-03-20T03:51:07.887Z,0.00
2018-03-20T03:52:07.747Z,0.00
2018-03-20T03:53:07.609Z,0.00
2018-03-20T03:54:07.472Z,0.00
2018-03-20T03:55:07.339Z,0.00
2018-03-20T03:56:07.200Z,0.00
2018-03-20T03:57:07.064Z,0.00
2018-03-20T03:58:06.930Z,0.00
2018-03-20T03:59:06.795Z,0.00
2018-03-20T04:00:06.655Z,0.00
2018-03-20T04:01:06.521Z,0.00
2018-03-20T04:02:06.384Z,0.00
2018-03-20T04:03:06.247Z,0.00
2018-03-20T04:04:06.114Z,0.00
2018-03-20T04:05:05.977Z,0.00
2018-03-20T04:06:05.843Z,0.00
2018-03-20T04:07:05.703Z,0.00
2018-03-20T04:08:05.566Z,0.00
2018-03-20T04:09:05.432Z,0.00
2018-03-20T04:10:05.300Z,0.00
2018-03-20T04:11:05.161Z,0.00
2018-03-20T04:12:05.027Z,0.00
2018-03-20T04:13:04.890Z,0.00
2018-03-20T04:14:04.756Z,0.00
2018-03-20T04:15:04.616Z,0.00
2018-03-20T04:16:04.490Z,0.00
2018-03-20T04:17:04.347Z,0.00
2018-03-20T04:18:04.211Z,0.00
2018-03-20T04:19:04.073Z,0.00
2018-03-20T04:20:03.937Z,0.00
2018-03-20T04:21:03.806Z,0.00
2018-03-20T04:22:03.667Z,0.00
2018-03-20T04:23:03.528Z,0.00
2018-03-20T04:24:03.395Z,0.00
2018-03-20T04:25:03.257Z,0.00
2018-03-20T04:26:03.122Z,0.00
2018-03-20T04:27:02.983Z,0.00
2018-03-20T04:28:02.849Z,0.00
2018-03-20T04:29:02.715Z,0.00
2018-03-20T04:30:02.577Z,0.00
2018-03-20T04:31:02.443Z,0.00
2018-03-20T04:32:02.307Z,0.00
2018-03-20T04:33:02.168Z,0.00
2018-03-20T04:34:02.036Z,0.00
2018-03-20T04:35:01.898Z,0.00
2018-03-20T04:36:01.761Z,0.00
2018-03-20T04:37:01.628Z,0.00
2018-03-20T04:38:01.488Z,0.00
2018-03-20T04:39:01.361Z,0.00
2018-03-20T04:40:01.220Z,0.00
2018-03-20T04:41:01.084Z,0.00
2018-03-20T04:42:00.945Z,0.00
2018-03-20T04:43:00.810Z,0.00
2018-03-20T04:44:00.677Z,0.00
2018-03-20T04:45:00.535Z,0.00
2018-03-20T04:46:00.401Z,0.00
2018-03-20T04:47:00.265Z,0.00
2018-03-20T04:48:00.127Z,0.00
2018-03-20T04:48:59.991Z,0.00
2018-03-20T04:49:59.857Z,0.00
2018-03-20T04:50:59.718Z,0.00
2018-03-20T04:51:59.582Z,0.00
2018-03-20T04:52:59.446Z,0.00
2018-03-20T04:53:59.311Z,0.00
2018-03-20T04:54:59.176Z,0.00
2018-03-20T04:55:59.038Z,0.00
2018-03-20T04:56:58.906Z,0.00
2018-03-20T04:57:58.767Z,0.00
2018-03-20T04:58:58.635Z,0.00
2018-03-20T04:59:58.493Z,0.00
2018-03-20T05:00:58.360Z,0.00
2018-03-20T05:01:58.222Z,0.00
2018-03-20T05:02:58.084Z,0.00
2018-03-20T05:03:57.948Z,0.00
2018-03-20T05:04:57.809Z,0.00
2018-03-20T05:05:57.674Z,0.00
2018-03-20T05:06:57.544Z,0.00
2018-03-20T05:07:57.400Z,4.00
2018-03-20T05:08:57.275Z,4.00
2018-03-20T05:09:57.150Z,0.00
2018-03-20T05:10:56.994Z,4.00
2018-03-20T05:11:56.900Z,4.00
2018-03-20T05:12:56.719Z,4.00
2018-03-20T05:13:56.601Z,4.00
2018-03-20T05:14:56.447Z,8.00
2018-03-20T05:15:56.311Z,8.00
2018-03-20T05:16:56.173Z,8.00
2018-03-20T05:17:56.037Z,8.00
2018-03-20T05:18:55.906Z,8.00
2018-03-20T05:19:55.767Z,12.00
2018-03-20T05:20:55.627Z,12.00
2018-03-20T05:21:55.495Z,16.00
2018-03-20T05:22:55.357Z,16.00
2018-03-20T05:23:55.218Z,16.00
2018-03-20T05:24:55.084Z,20.00
2018-03-20T05:25:54.948Z,20.00
2018-03-20T05:26:54.816Z,24.00
2018-03-20T05:27:54.674Z,24.00
2018-03-20T05:28:54.554Z,28.00
2018-03-20T05:29:54.403Z,32.00
2018-03-20T05:30:54.266Z,32.00
2018-03-20T05:31:54.131Z,40.00
2018-03-20T05:32:53.993Z,40.00
2018-03-20T05:33:53.860Z,44.00
2018-03-20T05:34:53.721Z,48.00
2018-03-20T05:35:53.584Z,52.00
2018-03-20T05:36:53.448Z,52.00
2018-03-20T05:37:53.315Z,52.00
2018-03-20T05:38:53.178Z,52.00
2018-03-20T05:39:53.040Z,56.00
2018-03-20T05:40:52.903Z,56.00
2018-03-20T05:41:52.795Z,56.00
2018-03-20T05:42:52.636Z,64.00
2018-03-20T05:43:52.493Z,64.00
2018-03-20T05:44:52.358Z,72.00
2018-03-20T05:45:52.220Z,80.00
2018-03-20T05:46:52.084Z,84.00
2018-03-20T05:47:51.946Z,92.00
2018-03-20T05:48:51.812Z,100.00
2018-03-20T05:49:51.676Z,108.00
2018-03-20T05:50:51.536Z,116.00
2018-03-20T05:51:51.404Z,124.00
2018-03-20T05:52:51.269Z,132.00
2018-03-20T05:53:51.128Z,132.00
2018-03-20T05:54:50.993Z,132.00
2018-03-20T05:55:50.857Z,136.00
2018-03-20T05:56:50.720Z,140.00
2018-03-20T05:57:50.584Z,148.00
2018-03-20T05:58:50.451Z,160.00
2018-03-20T05:59:50.311Z,184.00
2018-03-20T06:00:50.177Z,200.00
2018-03-20T06:01:50.047Z,208.00
2018-03-20T06:02:49.900Z,220.00
2018-03-20T06:03:49.772Z,228.00
2018-03-20T06:04:49.630Z,232.00
2018-03-20T06:05:49.494Z,240.00
2018-03-20T06:06:49.361Z,244.00
2018-03-20T06:07:49.225Z,256.00
2018-03-20T06:08:49.089Z,268.00
2018-03-20T06:09:48.953Z,284.00
2018-03-20T06:10:48.809Z,296.00
2018-03-20T06:11:48.678Z,304.00
2018-03-20T06:12:48.538Z,320.00
2018-03-20T06:13:48.412Z,340.00
2018-03-20T06:14:48.266Z,368.00
2018-03-20T06:15:48.129Z,396.00
2018-03-20T06:16:48.000Z,436.00
2018-03-20T06:17:47.859Z,472.00
2018-03-20T06:18:47.874Z,500.00
2018-03-20T06:19:47.583Z,524.00
2018-03-20T06:20:47.446Z,548.00
2018-03-20T06:21:47.317Z,564.00
2018-03-20T06:22:47.177Z,580.00
2018-03-20T06:23:47.038Z,588.00
2018-03-20T06:24:46.902Z,596.00
2018-03-20T06:25:46.764Z,608.00
2018-03-20T06:26:46.629Z,632.00
2018-03-20T06:27:46.493Z,660.00
2018-03-20T06:28:46.358Z,684.00
2018-03-20T06:29:46.289Z,700.00
2018-03-20T06:30:46.089Z,716.00
2018-03-20T06:31:45.976Z,752.00
2018-03-20T06:32:45.814Z,800.00
2018-03-20T06:33:45.676Z,864.00
2018-03-20T06:34:45.547Z,924.00
2018-03-20T06:35:45.403Z,976.00
2018-03-20T06:36:45.269Z,1012.00
2018-03-20T06:37:45.130Z,1052.00
2018-03-20T06:38:45.016Z,1072.00
2018-03-20T06:39:44.860Z,1100.00
2018-03-20T06:40:44.726Z,1128.00
2018-03-20T06:41:44.593Z,1144.00
2018-03-20T06:42:44.452Z,1156.00
2018-03-20T06:43:44.362Z,1140.00
2018-03-20T06:44:44.177Z,1120.00
2018-03-20T06:45:44.042Z,1088.00
2018-03-20T06:46:43.905Z,1052.00
2018-03-20T06:47:43.774Z,976.00
2018-03-20T06:48:43.633Z,944.00
2018-03-20T06:49:43.498Z,924.00
2018-03-20T06:50:43.361Z,924.00
2018-03-20T06:51:43.225Z,932.00
2018-03-20T06:52:43.089Z,940.00
2018-03-20T06:53:43.786Z,944.00
2018-03-20T06:54:42.817Z,976.00
2018-03-20T06:55:42.680Z,1000.00
2018-03-20T06:56:42.544Z,1020.00
2018-03-20T06:57:42.410Z,1040.00
2018-03-20T06:58:42.270Z,1052.00
2018-03-20T06:59:42.222Z,1084.00
2018-03-20T07:00:42.001Z,1104.00
2018-03-20T07:01:41.994Z,1148.00
2018-03-20T07:02:41.730Z,1176.00
2018-03-20T07:03:41.593Z,1224.00
2018-03-20T07:04:41.457Z,1292.00
2018-03-20T07:05:41.353Z,1356.00
2018-03-20T07:06:41.197Z,1388.00
2018-03-20T07:07:41.050Z,1372.00
2018-03-20T07:08:40.921Z,1368.00
2018-03-20T07:09:40.779Z,1316.00
2018-03-20T07:10:40.644Z,1292.00
2018-03-20T07:11:40.517Z,1312.00
2018-03-20T07:12:40.372Z,1320.00
2018-03-20T07:13:40.239Z,1308.00
2018-03-20T07:14:40.103Z,1304.00
2018-03-20T07:15:39.965Z,1324.00
2018-03-20T07:16:39.834Z,1360.00
2018-03-20T07:17:39.696Z,1408.00
2018-03-20T07:18:39.558Z,1404.00
2018-03-20T07:19:39.430Z,1436.00
2018-03-20T07:20:39.287Z,1476.00
2018-03-20T07:21:39.164Z,1488.00
2018-03-20T07:22:39.015Z,1532.00
2018-03-20T07:23:38.879Z,1540.00
2018-03-20T07:24:38.751Z,1560.00
2018-03-20T07:25:38.609Z,1616.00
2018-03-20T07:26:38.474Z,1624.00
2018-03-20T07:27:38.337Z,1708.00
2018-03-20T07:28:38.202Z,1808.00
2018-03-20T07:29:38.068Z,1872.00
2018-03-20T07:30:37.930Z,1948.00
2018-03-20T07:31:37.882Z,1976.00
2018-03-20T07:32:37.712Z,1968.00
2018-03-20T07:33:37.527Z,1944.00
2018-03-20T07:34:37.389Z,1928.00
2018-03-20T07:35:37.254Z,1924.00
2018-03-20T07:36:37.118Z,1976.00
2018-03-20T07:37:36.983Z,2016.00
2018-03-20T07:38:36.846Z,2052.00
2018-03-20T07:39:36.740Z,2108.00
2018-03-20T07:40:36.577Z,2132.00
2018-03-20T07:41:36.442Z,2132.00
2018-03-20T07:42:36.306Z,2184.00
2018-03-20T07:43:36.170Z,2248.00
2018-03-20T07:44:36.095Z,2240.00
2018-03-20T07:45:35.906Z,2288.00
2018-03-20T07:46:35.791Z,2288.00
2018-03-20T07:47:35.628Z,2340.00
2018-03-20T07:48:35.495Z,2484.00
2018-03-20T07:49:35.358Z,2584.00
2018-03-20T07:50:35.224Z,2700.00
2018-03-20T07:51:35.181Z,2824.00
2018-03-20T07:52:34.952Z,2872.00
2018-03-20T07:53:34.816Z,2916.00
2018-03-20T07:54:34.681Z,2888.00
2018-03-20T07:55:34.552Z,2912.00
2018-03-20T07:56:34.415Z,2976.00
2018-03-20T07:57:34.280Z,3112.00
2018-03-20T07:58:34.142Z,3164.00
2018-03-20T07:59:34.008Z,3100.00
2018-03-20T08:00:33.874Z,2832.00
2018-03-20T08:01:33.785Z,2764.00
2018-03-20T08:02:33.603Z,2852.00
2018-03-20T08:03:33.468Z,2940.00
2018-03-20T08:04:33.334Z,2320.00
2018-03-20T08:05:33.199Z,2324.00
2018-03-20T08:06:33.069Z,2544.00
2018-03-20T08:07:32.928Z,2772.00
2018-03-20T08:08:32.794Z,3200.00
2018-03-20T08:09:32.659Z,3660.00
2018-03-20T08:10:32.528Z,3940.00
2018-03-20T08:11:32.391Z,4204.00
2018-03-20T08:12:32.254Z,4316.00
2018-03-20T08:13:32.121Z,4312.00
2018-03-20T08:14:31.992Z,4408.00
2018-03-20T08:15:31.850Z,4420.00
2018-03-20T08:16:31.716Z,4388.00
2018-03-20T08:17:31.582Z,4256.00
2018-03-20T08:18:31.448Z,4304.00
2018-03-20T08:19:31.314Z,4652.00
2018-03-20T08:20:31.178Z,5360.00
2018-03-20T08:21:31.047Z,5540.00
2018-03-20T08:22:30.910Z,5320.00
2018-03-20T08:23:30.791Z,5704.00
2018-03-20T08:24:30.642Z,6184.00
2018-03-20T08:25:30.508Z,6376.00
2018-03-20T08:26:30.372Z,6396.00
2018-03-20T08:27:30.238Z,6952.00
2018-03-20T08:28:30.104Z,6840.00
2018-03-20T08:29:29.970Z,6936.00
2018-03-20T08:30:29.837Z,6532.00
2018-03-20T08:31:29.705Z,5880.00
2018-03-20T08:32:29.568Z,5892.00
2018-03-20T08:33:29.435Z,6344.00
2018-03-20T08:34:29.302Z,6860.00
2018-03-20T08:35:29.168Z,7324.00
2018-03-20T08:36:29.035Z,7316.00
2018-03-20T08:37:28.900Z,7188.00
2018-03-20T08:38:28.769Z,8348.00
2018-03-20T08:39:28.638Z,9284.00
2018-03-20T08:40:28.500Z,9120.00
2018-03-20T08:41:28.367Z,8420.00
2018-03-20T08:42:28.232Z,8332.00
2018-03-20T08:43:28.100Z,7452.00
2018-03-20T08:44:27.970Z,6824.00
2018-03-20T08:45:27.835Z,6856.00
2018-03-20T08:46:27.705Z,6504.00
2018-03-20T08:47:27.592Z,7264.00
2018-03-20T08:48:27.439Z,7880.00
2018-03-20T08:49:27.306Z,8108.00
2018-03-20T08:50:27.173Z,7632.00
2018-03-20T08:51:27.043Z,7132.00
2018-03-20T08:52:26.909Z,5328.00
2018-03-20T08:53:26.778Z,4748.00
2018-03-20T08:54:26.643Z,4832.00
2018-03-20T08:55:26.512Z,4708.00
2018-03-20T08:56:26.379Z,4324.00
2018-03-20T08:57:26.246Z,4084.00
2018-03-20T08:58:26.114Z,3860.00
2018-03-20T08:59:25.981Z,3408.00
2018-03-20T09:00:25.849Z,2852.00
2018-03-20T09:01:25.718Z,2416.00
2018-03-20T09:02:25.583Z,2196.00
2018-03-20T09:03:25.450Z,2044.00
2018-03-20T09:04:25.316Z,1984.00
2018-03-20T09:05:25.184Z,1976.00
2018-03-20T09:06:25.075Z,1892.00
2018-03-20T09:07:24.917Z,1840.00
2018-03-20T09:08:24.835Z,1784.00
2018-03-20T09:09:24.649Z,1632.00
2018-03-20T09:10:24.513Z,1580.00
2018-03-20T09:11:24.379Z,1568.00
2018-03-20T09:12:24.288Z,1596.00
2018-03-20T09:13:24.112Z,1616.00
2018-03-20T09:14:23.986Z,1584.00
2018-03-20T09:15:23.845Z,1492.00
2018-03-20T09:16:23.711Z,1536.00
2018-03-20T09:17:23.574Z,1468.00
2018-03-20T09:18:23.442Z,1536.00
2018-03-20T09:19:23.303Z,1552.00
2018-03-20T09:20:23.169Z,1560.00
2018-03-20T09:21:23.036Z,1544.00
2018-03-20T09:22:22.898Z,1584.00
2018-03-20T09:23:22.765Z,1668.00
2018-03-20T09:24:22.632Z,1720.00
2018-03-20T09:25:22.496Z,1796.00
2018-03-20T09:26:22.362Z,1900.00
2018-03-20T09:27:22.241Z,1904.00
2018-03-20T09:28:22.091Z,1884.00
2018-03-20T09:29:21.960Z,1872.00
2018-03-20T09:30:21.828Z,1888.00
2018-03-20T09:31:21.688Z,1984.00
2018-03-20T09:32:21.553Z,2092.00
2018-03-20T09:33:21.437Z,2220.00
2018-03-20T09:34:21.287Z,2276.00
2018-03-20T09:35:21.147Z,2424.00
2018-03-20T09:36:21.012Z,2540.00
2018-03-20T09:37:20.876Z,2724.00
2018-03-20T09:38:20.741Z,2872.00
2018-03-20T09:39:20.609Z,2956.00
2018-03-20T09:40:20.474Z,2956.00
2018-03-20T09:41:20.340Z,2924.00
2018-03-20T09:42:20.206Z,3184.00
2018-03-20T09:43:20.072Z,3376.00
2018-03-20T09:44:19.935Z,3520.00
2018-03-20T09:45:19.800Z,3616.00
2018-03-20T09:46:19.665Z,3548.00
2018-03-20T09:47:19.531Z,3536.00
2018-03-20T09:48:19.399Z,3672.00
2018-03-20T09:49:19.265Z,3732.00
2018-03-20T09:50:19.129Z,3644.00
2018-03-20T09:51:18.997Z,3396.00
2018-03-20T09:52:18.864Z,2964.00
2018-03-20T09:53:18.729Z,2684.00
2018-03-20T09:54:18.592Z,2520.00
2018-03-20T09:55:18.468Z,2488.00
2018-03-20T09:56:18.325Z,2500.00
2018-03-20T09:57:18.191Z,2568.00
2018-03-20T09:58:18.056Z,2612.00
2018-03-20T09:59:17.922Z,2800.00
2018-03-20T10:00:17.787Z,3008.00
2018-03-20T10:01:17.654Z,3136.00
2018-03-20T10:02:17.519Z,3188.00
2018-03-20T10:03:17.384Z,3172.00
2018-03-20T10:04:17.252Z,3044.00
2018-03-20T10:05:17.116Z,3172.00
2018-03-20T10:06:16.989Z,3260.00
2018-03-20T10:07:16.849Z,3312.00
2018-03-20T10:08:16.711Z,3280.00
2018-03-20T10:09:16.580Z,3176.00
2018-03-20T10:10:16.445Z,3044.00
2018-03-20T10:11:16.313Z,3152.00
2018-03-20T10:12:16.176Z,3340.00
2018-03-20T10:13:16.040Z,3544.00
2018-03-20T10:14:15.907Z,3524.00
2018-03-20T10:15:15.776Z,3604.00
2018-03-20T10:16:15.639Z,3668.00
2018-03-20T10:17:15.507Z,3836.00
2018-03-20T10:18:15.370Z,4004.00
2018-03-20T10:19:15.250Z,4120.00
2018-03-20T10:20:15.153Z,4156.00
2018-03-20T10:21:14.972Z,4264.00
2018-03-20T10:22:14.836Z,4220.00
2018-03-20T10:23:14.708Z,4056.00
2018-03-20T10:24:14.570Z,4004.00
2018-03-20T10:25:14.434Z,4092.00
2018-03-20T10:26:14.325Z,4252.00
2018-03-20T10:27:14.164Z,4404.00
2018-03-20T10:28:14.033Z,4840.00
2018-03-20T10:29:13.900Z,4836.00
2018-03-20T10:30:13.767Z,5060.00
2018-03-20T10:31:13.634Z,4972.00
2018-03-20T10:32:13.500Z,4524.00
2018-03-20T10:33:13.363Z,4148.00
2018-03-20T10:34:13.230Z,4208.00
2018-03-20T10:35:13.096Z,4116.00
2018-03-20T10:36:12.962Z,4468.00
2018-03-20T10:37:12.829Z,4656.00
2018-03-20T10:38:12.697Z,4616.00
2018-03-20T10:39:12.566Z,4756.00
2018-03-20T10:40:12.430Z,4904.00
2018-03-20T10:41:12.297Z,4948.00
2018-03-20T10:42:12.165Z,4532.00
2018-03-20T10:43:12.033Z,4184.00
2018-03-20T10:44:11.911Z,4328.00
2018-03-20T10:45:11.767Z,4636.00
2018-03-20T10:46:11.631Z,4912.00
2018-03-20T10:47:11.501Z,5060.00
2018-03-20T10:48:11.365Z,4808.00
2018-03-20T10:49:11.233Z,4504.00
2018-03-20T10:50:11.098Z,4380.00
2018-03-20T10:51:10.966Z,4660.00
2018-03-20T10:52:10.833Z,5068.00
2018-03-20T10:53:10.704Z,5140.00
2018-03-20T10:54:10.573Z,4612.00
2018-03-20T10:55:10.477Z,4520.00
2018-03-20T10:56:10.303Z,4572.00
2018-03-20T10:57:10.177Z,4636.00
2018-03-20T10:58:10.035Z,4552.00
2018-03-20T10:59:09.904Z,4564.00
2018-03-20T11:00:09.771Z,4420.00
2018-03-20T11:01:09.638Z,4420.00
2018-03-20T11:02:09.505Z,4404.00
2018-03-20T11:03:09.370Z,4512.00
2018-03-20T11:04:09.239Z,4796.00
2018-03-20T11:05:09.123Z,4456.00
2018-03-20T11:06:08.972Z,4808.00
2018-03-20T11:07:08.848Z,5448.00
2018-03-20T11:08:08.707Z,5664.00
2018-03-20T11:09:08.575Z,5476.00
2018-03-20T11:10:08.440Z,6076.00
2018-03-20T11:11:08.308Z,5404.00
2018-03-20T11:12:08.177Z,4132.00
2018-03-20T11:13:08.046Z,3892.00
2018-03-20T11:14:07.912Z,3840.00
2018-03-20T11:15:07.778Z,4024.00
2018-03-20T11:16:07.648Z,3588.00
2018-03-20T11:17:07.518Z,3716.00
2018-03-20T11:18:07.380Z,3776.00
2018-03-20T11:19:07.247Z,3516.00
2018-03-20T11:20:07.113Z,3412.00
2018-03-20T11:21:06.983Z,3408.00
2018-03-20T11:22:06.853Z,3448.00
2018-03-20T11:23:07.317Z,3668.00
2018-03-20T11:24:06.582Z,3972.00
2018-03-20T11:25:06.449Z,4072.00
2018-03-20T11:26:06.322Z,4508.00
2018-03-20T11:27:06.181Z,4896.00
2018-03-20T11:28:06.046Z,4960.00
2018-03-20T11:29:05.913Z,5140.00
2018-03-20T11:30:05.783Z,5288.00
2018-03-20T11:31:05.648Z,5368.00
2018-03-20T11:32:05.515Z,5348.00
2018-03-20T11:33:05.388Z,5280.00
2018-03-20T11:34:05.250Z,5212.00
2018-03-20T11:35:05.118Z,5104.00
2018-03-20T11:36:04.985Z,5124.00
2018-03-20T11:37:04.851Z,5228.00
2018-03-20T11:38:04.718Z,5228.00
2018-03-20T11:39:04.586Z,5200.00
2018-03-20T11:40:04.453Z,5064.00
2018-03-20T11:41:04.318Z,4796.00
2018-03-20T11:42:04.185Z,4732.00
2018-03-20T11:43:04.053Z,4880.00
2018-03-20T11:44:03.918Z,4728.00
2018-03-20T11:45:03.786Z,4224.00
2018-03-20T11:46:03.655Z,3996.00
2018-03-20T11:47:03.524Z,4100.00
2018-03-20T11:48:03.389Z,4372.00
2018-03-20T11:49:03.256Z,4684.00
2018-03-20T11:50:03.125Z,4904.00
2018-03-20T11:51:02.989Z,4844.00
2018-03-20T11:52:02.862Z,4788.00
2018-03-20T11:53:02.726Z,4828.00
2018-03-20T11:54:02.593Z,4912.00
2018-03-20T11:55:02.465Z,4824.00
2018-03-20T11:56:02.330Z,4612.00
2018-03-20T11:57:02.198Z,4536.00
2018-03-20T11:58:02.070Z,4476.00
2018-03-20T11:59:01.931Z,4468.00
2018-03-20T12:00:01.801Z,4096.00
2018-03-20T12:01:01.667Z,3572.00
2018-03-20T12:02:01.533Z,3720.00
2018-03-20T12:03:01.400Z,3572.00
2018-03-20T12:04:01.271Z,3392.00
2018-03-20T12:05:01.135Z,3840.00
2018-03-20T12:06:01.001Z,3796.00
2018-03-20T12:07:00.870Z,3944.00
2018-03-20T12:08:00.736Z,3864.00
2018-03-20T12:09:00.604Z,3548.00
2018-03-20T12:10:00.470Z,3596.00
2018-03-20T12:11:00.338Z,4076.00
2018-03-20T12:12:00.206Z,4108.00
2018-03-20T12:13:00.075Z,3964.00
2018-03-20T12:13:59.939Z,4292.00
2018-03-20T12:14:59.806Z,4296.00
2018-03-20T12:15:59.686Z,3968.00
2018-03-20T12:16:59.540Z,4104.00
2018-03-20T12:17:59.404Z,4548.00
2018-03-20T12:18:59.269Z,4816.00
2018-03-20T12:19:59.140Z,4480.00
2018-03-20T12:20:59.004Z,4696.00
2018-03-20T12:21:58.873Z,4852.00
2018-03-20T12:22:58.739Z,4724.00
2018-03-20T12:23:58.605Z,4428.00
2018-03-20T12:24:58.472Z,4112.00
2018-03-20T12:25:58.341Z,3696.00
2018-03-20T12:26:58.209Z,3108.00
2018-03-20T12:27:58.077Z,3020.00
2018-03-20T12:28:57.940Z,3100.00
2018-03-20T12:29:57.807Z,3172.00
2018-03-20T12:30:57.674Z,3056.00
2018-03-20T12:31:57.588Z,2612.00
2018-03-20T12:32:57.409Z,2648.00
2018-03-20T12:33:57.277Z,2636.00
2018-03-20T12:34:57.143Z,2400.00
2018-03-20T12:35:57.010Z,2420.00
2018-03-20T12:36:56.875Z,2720.00